Overview Statistics Trail Chart Weather Telemetry Raw packets
 

This is the latest recevied weather packets stored in our database for station/object SV9TNF-51. If no packets are shown the sender has not sent any weather packets the latest 10 day(s).

<< 21 22 23 24 25 26 27 >>
Time Temp. Humidity Pressure Rain* Wind** Luminosity Snow
1788521381 33.89° C 40% 1012.2 hPa 0 mm 9.39 m/s, 101° - -
1788521081 35° C 38% 1012.2 hPa 0 mm 4.02 m/s, 121° - -
1788520781 33.89° C 40% 1012.2 hPa 0 mm 5.81 m/s, 138° - -
1788520481 32.22° C 44% 1012.2 hPa 0 mm 4.92 m/s, 133° - -
1788520181 32.78° C 44% 1012.2 hPa 0 mm 6.26 m/s, 316° - -
1788519880 32.22° C 45% 1012.2 hPa 0 mm 4.92 m/s, 34° - -
1788519581 32.78° C 44% 1012.2 hPa 0 mm 6.71 m/s, 319° - -
1788519281 31.67° C 44% 1012.2 hPa 0 mm 12.07 m/s, 317° - -
1788518980 32.78° C 44% 1012.2 hPa 0 mm 2.68 m/s, 91° - -
1788518680 32.78° C 43% 1012.2 hPa 0 mm 1.34 m/s, 119° - -
1788518380 33.33° C 42% 1012.2 hPa 0 mm 4.47 m/s, 320° - -
1788518080 32.22° C 43% 1012.2 hPa 0 mm 9.83 m/s, 292° - -
1788517780 31.67° C 44% 1012.2 hPa 0 mm 4.47 m/s, 138° - -
1788517480 32.78° C 44% 1012.2 hPa 0 mm 4.47 m/s, 271° - -
1788517180 32.22° C 45% 1012.2 hPa 0 mm 5.81 m/s, 302° - -
1788516879 33.89° C 41% 1012.2 hPa 0 mm 1.34 m/s, 132° - -
1788516579 33.33° C 41% 1011.9 hPa 0 mm 3.58 m/s, 132° - -
1788516279 32.22° C 42% 1011.9 hPa 0 mm 9.83 m/s, 7° - -
1788515979 32.22° C 43% 1011.9 hPa 0 mm 10.28 m/s, 322° - -
1788515679 31.67° C 45% 1011.9 hPa 0 mm 7.15 m/s, 347° - -
1788515379 31.67° C 46% 1011.9 hPa 0 mm 8.05 m/s, 104° - -
1788515079 31.67° C 45% 1011.9 hPa 0 mm 7.15 m/s, 335° - -
1788514779 31.67° C 45% 1011.9 hPa 0 mm 3.58 m/s, 352° - -
1788514479 31.67° C 47% 1011.9 hPa 0 mm 5.81 m/s, 131° - -
1788514179 31.67° C 45% 1011.9 hPa 0 mm 4.02 m/s, 192° - -

* Rain latest hour (hover to see other rain measurements)
** Current wind speed in m/s (hover to see current wind gust speed)